Time;durP1;ratioP1;P1;durP2;ratioP2;P2;SDS_P1;SDS_P2;PMS_P1;PMS_P2;Temp;Humidity;BMP_temperature;BMP_pressure;BME280_temperature;BME280_humidity;BME280_pressure;Samples;Min_cycle;Max_cycle;Signal;HPM_P1;HPM_P2
2022/01/13 00:00:15;;;;;;;54.25;19.45;;;;;;;-3.14;96.16;100850.72;5018618;28;20022;-66
2022/01/13 00:02:41;;;;;;;41.92;16.65;;;;;;;-3.08;96.32;100850.25;5008508;28;20261;-66
2022/01/13 00:05:07;;;;;;;26.00;12.98;;;;;;;-3.04;95.98;100852.28;5012790;28;20022;-66
2022/01/13 00:07:33;;;;;;;26.77;12.23;;;;;;;-2.99;95.95;100856.03;5008481;28;20029;-66
2022/01/13 00:09:59;;;;;;;25.10;12.13;;;;;;;-2.93;95.79;100856.47;5019217;28;20038;-66
2022/01/13 00:12:30;;;;;;;27.05;11.75;;;;;;;-2.96;96.16;100862.31;5009494;28;20132;-66
2022/01/13 00:15:47;;;;;;;24.50;10.82;;;;;;;-3.05;95.84;100856.50;5009206;28;20022;-66
2022/01/13 00:25:13;;;;;;;52.50;22.02;;;;;;;-3.41;97.78;100881.38;5022607;28;20041;-66
2022/01/13 00:27:43;;;;;;;54.17;20.40;;;;;;;-3.47;98.17;100888.66;5018325;28;20100;-66
2022/01/13 00:30:15;;;;;;;73.00;27.55;;;;;;;-3.43;98.22;100893.22;5020407;28;20021;-66
2022/01/13 00:32:41;;;;;;;64.28;26.73;;;;;;;-3.35;98.84;100880.13;5018446;28;20036;-66
2022/01/13 00:35:07;;;;;;;80.13;30.50;;;;;;;-3.28;98.65;100881.44;5018048;28;20038;-66
2022/01/13 00:37:34;;;;;;;206.15;62.15;;;;;;;-3.31;98.52;100886.38;5009327;28;20310;-66
2022/01/13 00:39:59;;;;;;;151.70;49.55;;;;;;;-3.33;98.42;100882.78;5018974;28;20018;-66
2022/01/13 00:42:25;;;;;;;107.63;40.75;;;;;;;-3.38;98.08;100876.44;5007869;28;20069;-66
2022/01/13 00:44:50;;;;;;;103.15;37.83;;;;;;;-3.33;98.17;100886.28;5020107;28;20026;-66
2022/01/13 00:47:16;;;;;;;63.28;28.92;;;;;;;-3.28;97.92;100886.59;5014047;28;20025;-66
2022/01/13 00:49:41;;;;;;;48.45;18.60;;;;;;;-3.24;96.77;100879.22;5013057;28;20033;-66
2022/01/13 00:52:07;;;;;;;48.65;19.33;;;;;;;-3.31;96.33;100881.25;5013013;28;20017;-65
2022/01/13 00:54:34;;;;;;;39.55;16.42;;;;;;;-3.44;96.12;100882.06;5020691;28;20017;-65
2022/01/13 00:56:59;;;;;;;41.08;19.25;;;;;;;-3.42;96.23;100880.47;5011479;28;20017;-65
2022/01/13 00:59:25;;;;;;;45.75;16.30;;;;;;;-3.32;95.80;100884.59;5020685;28;20099;-65
2022/01/13 01:01:52;;;;;;;25.23;14.18;;;;;;;-3.34;95.95;100875.88;5016499;28;20037;-65
2022/01/13 01:04:18;;;;;;;28.23;14.27;;;;;;;-3.25;95.96;100876.53;5011390;28;20277;-65
2022/01/13 01:06:45;;;;;;;44.58;18.83;;;;;;;-3.18;96.12;100889.03;5007622;28;20018;-65
2022/01/13 01:09:15;;;;;;;44.38;19.63;;;;;;;-3.21;95.61;100886.25;5014135;28;20025;-65
2022/01/13 01:11:42;;;;;;;55.65;21.67;;;;;;;-3.23;96.32;100885.25;5011819;28;20045;-65
2022/01/13 01:14:08;;;;;;;35.70;14.35;;;;;;;-3.30;95.18;100889.06;5021238;28;20044;-65
2022/01/13 01:16:36;;;;;;;48.65;19.35;;;;;;;-3.45;95.05;100881.97;5011257;28;20373;-65
2022/01/13 01:19:06;;;;;;;51.22;17.98;;;;;;;-3.39;95.47;100879.81;5012198;28;20030;-65
2022/01/13 01:21:49;;;;;;;35.47;18.40;;;;;;;-3.59;95.58;100887.78;5021443;28;20105;-65
2022/01/13 01:26:50;;;;;;;65.07;22.90;;;;;;;-3.58;96.47;100884.44;5016580;28;20158;-65
2022/01/13 01:31:48;;;;;;;47.08;19.77;;;;;;;-3.54;96.86;100907.03;5011634;28;20018;-65
2022/01/13 01:36:49;;;;;;;48.67;18.23;;;;;;;-3.58;96.59;100899.88;5020906;28;20060;-65
2022/01/13 01:39:15;;;;;;;41.55;20.05;;;;;;;-3.57;97.50;100907.72;5011556;28;20226;-65
2022/01/13 01:41:43;;;;;;;52.92;25.98;;;;;;;-3.61;97.81;100904.81;5015722;28;20036;-65
2022/01/13 01:44:14;;;;;;;48.50;22.60;;;;;;;-3.58;97.66;100905.91;5012852;28;20067;-65
2022/01/13 01:46:42;;;;;;;49.53;23.77;;;;;;;-3.59;96.88;100900.66;5020311;28;20023;-65
2022/01/13 01:49:20;;;;;;;60.45;20.73;;;;;;;-3.60;97.10;100892.06;5015580;28;20096;-65
2022/01/13 01:51:49;;;;;;;67.07;25.67;;;;;;;-3.66;97.20;100883.00;5015584;28;20026;-65
2022/01/13 01:54:15;;;;;;;50.50;21.70;;;;;;;-3.70;97.97;100889.59;5015474;28;20033;-65
2022/01/13 01:56:43;;;;;;;47.72;20.55;;;;;;;-3.56;97.20;100893.16;5016336;28;20021;-65
2022/01/13 01:59:13;;;;;;;55.85;21.77;;;;;;;-3.70;96.64;100891.28;5019565;28;20022;-65
2022/01/13 02:01:39;;;;;;;61.90;21.58;;;;;;;-3.69;97.24;100895.63;5023248;28;20065;-65
2022/01/13 02:04:05;;;;;;;50.15;22.05;;;;;;;-3.69;97.35;100895.63;5023113;28;20256;-65
2022/01/13 02:06:30;;;;;;;43.00;20.73;;;;;;;-3.72;97.86;100890.25;5018297;28;20027;-65
2022/01/13 02:08:59;;;;;;;53.45;20.15;;;;;;;-3.68;97.47;100889.69;5020787;28;20188;-65
2022/01/13 02:11:26;;;;;;;46.55;18.67;;;;;;;-3.65;97.91;100887.34;5019364;28;20042;-65
2022/01/13 02:13:56;;;;;;;32.47;16.35;;;;;;;-3.67;97.50;100881.22;5018814;28;20057;-65
2022/01/13 02:19:00;;;;;;;38.33;17.33;;;;;;;-3.63;96.71;100878.97;5017818;28;20117;-65
2022/01/13 02:21:26;;;;;;;49.38;19.70;;;;;;;-3.59;97.06;100872.34;5019033;28;20052;-65
2022/01/13 02:23:52;;;;;;;37.65;16.48;;;;;;;-3.61;96.37;100876.50;5018609;28;20018;-65
2022/01/13 02:26:18;;;;;;;36.00;15.95;;;;;;;-3.56;96.48;100875.13;5011906;28;20230;-65
2022/01/13 02:28:44;;;;;;;29.15;13.52;;;;;;;-3.54;96.43;100881.28;5021021;28;20294;-65
2022/01/13 02:31:11;;;;;;;46.55;18.40;;;;;;;-3.54;96.31;100881.28;5016878;28;20025;-65
2022/01/13 02:33:37;;;;;;;40.70;14.80;;;;;;;-3.59;95.85;100872.34;5010058;28;20022;-65
2022/01/13 02:36:04;;;;;;;36.72;13.90;;;;;;;-3.54;95.52;100878.72;5017243;28;20064;-65
2022/01/13 02:38:29;;;;;;;39.88;17.80;;;;;;;-3.56;95.34;100877.72;5017657;28;20022;-65
2022/01/13 02:40:56;;;;;;;31.70;15.43;;;;;;;-3.55;95.57;100879.53;5020013;28;20094;-65
2022/01/13 02:43:24;;;;;;;33.15;14.90;;;;;;;-3.56;95.48;100875.13;5010205;28;20033;-65
2022/01/13 02:48:35;;;;;;;51.28;20.67;;;;;;;-3.57;96.28;100870.78;5016413;28;20205;-65
2022/01/13 02:51:01;;;;;;;47.85;16.08;;;;;;;-3.57;96.89;100871.69;5023653;28;20244;-65
2022/01/13 02:53:27;;;;;;;28.15;16.45;;;;;;;-3.42;97.15;100869.31;5009789;28;20026;-65
2022/01/13 02:55:56;;;;;;;41.53;17.00;;;;;;;-3.42;96.59;100871.88;5020051;28;20261;-65
2022/01/13 02:58:23;;;;;;;29.80;16.48;;;;;;;-3.35;96.24;100869.81;5011616;28;20029;-65
2022/01/13 03:00:48;;;;;;;33.50;15.50;;;;;;;-3.17;96.35;100868.53;5020660;28;20022;-65
2022/01/13 03:03:14;;;;;;;30.08;14.35;;;;;;;-3.05;96.46;100866.81;5013175;28;20025;-65
2022/01/13 03:05:41;;;;;;;29.92;15.50;;;;;;;-3.15;96.36;100863.50;5018168;28;20359;-65
2022/01/13 03:08:08;;;;;;;35.17;18.05;;;;;;;-3.21;96.27;100873.38;5016158;28;21202;-65
2022/01/13 03:10:34;;;;;;;33.30;15.25;;;;;;;-3.12;97.28;100871.44;5017731;28;20018;-65
2022/01/13 03:13:00;;;;;;;37.20;16.73;;;;;;;-3.21;97.72;100873.38;5022274;28;20037;-65
2022/01/13 03:15:26;;;;;;;25.58;14.38;;;;;;;-3.00;98.05;100869.72;5009604;28;20018;-65
2022/01/13 03:17:51;;;;;;;35.35;12.93;;;;;;;-2.82;98.34;100865.81;5020876;28;20340;-65
2022/01/13 03:20:17;;;;;;;42.00;12.32;;;;;;;-2.61;99.28;100867.28;5014064;28;20077;-65
2022/01/13 03:22:42;;;;;;;40.33;13.20;;;;;;;-2.44;100.00;100865.03;5020290;28;20022;-65
2022/01/13 03:25:09;;;;;;;48.50;15.68;;;;;;;-2.40;100.00;100858.41;5015006;28;20022;-65
2022/01/13 03:27:36;;;;;;;28.85;13.93;;;;;;;-2.38;99.70;100868.03;5012107;28;20101;-65
2022/01/13 03:30:06;;;;;;;38.33;13.90;;;;;;;-2.43;100.00;100855.63;5020985;28;20022;-65
2022/01/13 03:32:32;;;;;;;47.67;15.65;;;;;;;-2.33;100.00;100865.75;5010916;28;20322;-65
2022/01/13 03:34:58;;;;;;;30.10;12.25;;;;;;;-2.20;100.00;100863.19;5014034;28;20018;-65
2022/01/13 03:37:23;;;;;;;28.15;10.55;;;;;;;-1.93;100.00;100870.13;5020112;28;20076;-65
2022/01/13 03:39:49;;;;;;;31.90;13.48;;;;;;;-1.81;100.00;100865.78;5023002;28;20024;-65
2022/01/13 03:42:14;;;;;;;37.72;11.93;;;;;;;-1.83;100.00;100872.53;5016168;28;20313;-65
2022/01/13 03:44:39;;;;;;;41.70;13.45;;;;;;;-1.68;100.00;100870.91;5021192;28;20028;-65
2022/01/13 03:47:05;;;;;;;32.05;13.18;;;;;;;-1.55;100.00;100876.06;5015531;28;20018;-65
2022/01/13 03:49:32;;;;;;;32.97;13.13;;;;;;;-1.45;100.00;100878.47;5022959;28;20018;-65
2022/01/13 03:51:59;;;;;;;25.58;11.00;;;;;;;-1.36;100.00;100872.97;5015860;28;20093;-65
2022/01/13 03:54:36;;;;;;;30.52;10.63;;;;;;;-1.26;100.00;100860.75;5018981;28;20317;-65
2022/01/13 03:57:38;;;;;;;29.70;11.32;;;;;;;-1.30;100.00;100860.44;5018496;28;20021;-65
2022/01/13 04:00:22;;;;;;;;;;;;;;;-1.38;100.00;100870.28;5009244;28;20022;-65
2022/01/13 04:02:48;;;;;;;38.50;13.43;;;;;;;-1.25;100.00;100878.00;5008342;28;19905;-65
2022/01/13 04:05:13;;;;;;;21.40;11.10;;;;;;;-1.25;100.00;100872.84;5016193;28;20029;-65
2022/01/13 04:07:39;;;;;;;33.00;12.57;;;;;;;-1.18;100.00;100874.09;5020895;28;20028;-65
2022/01/13 04:10:51;;;;;;;26.38;11.10;;;;;;;-1.08;100.00;100877.34;5011284;28;20033;-65
2022/01/13 04:13:43;;;;;;;;;;;;;;;-1.01;100.00;100884.69;5013843;28;20049;-65
2022/01/13 04:16:08;;;;;;;26.33;11.38;;;;;;;-1.04;100.00;100879.31;5015874;28;19933;-65
2022/01/13 04:18:34;;;;;;;30.25;11.40;;;;;;;-1.06;100.00;100875.78;5014605;28;20021;-65
2022/01/13 04:21:01;;;;;;;44.25;13.90;;;;;;;-0.95;100.00;100873.84;5019953;28;20085;-65
2022/01/13 04:23:26;;;;;;;31.98;12.63;;;;;;;-0.82;100.00;100874.66;5014379;28;20013;-65
2022/01/13 04:25:51;;;;;;;35.25;11.65;;;;;;;-0.66;100.00;100868.75;5017883;28;20065;-65
2022/01/13 04:28:17;;;;;;;28.05;12.68;;;;;;;-0.73;100.00;100872.63;5014478;28;20029;-65
2022/01/13 04:33:12;;;;;;;42.20;16.08;;;;;;;-0.84;100.00;100872.78;5020233;28;20040;-65
2022/01/13 04:35:39;;;;;;;37.20;14.93;;;;;;;-0.69;100.00;100868.56;5020311;28;20014;-65
2022/01/13 04:38:04;;;;;;;39.65;14.75;;;;;;;-0.76;100.00;100861.25;5008790;28;20021;-65
2022/01/13 04:40:29;;;;;;;33.55;12.00;;;;;;;-0.78;100.00;100863.75;5018561;28;20317;-65
2022/01/13 04:42:56;;;;;;;51.50;12.57;;;;;;;-0.71;100.00;100854.63;5009651;28;20360;-65
2022/01/13 04:45:23;;;;;;;25.58;10.02;;;;;;;-0.82;100.00;100856.56;5019386;28;20304;-65
2022/01/13 04:47:52;;;;;;;26.17;10.35;;;;;;;-0.66;100.00;100859.28;5016242;28;20037;-65
2022/01/13 04:50:20;;;;;;;38.33;14.18;;;;;;;-0.68;100.00;100860.91;5011176;28;20018;-65
2022/01/13 04:52:45;;;;;;;34.70;12.85;;;;;;;-0.76;100.00;100861.25;5013034;28;20028;-65
2022/01/13 04:55:11;;;;;;;37.67;12.75;;;;;;;-0.61;100.00;100863.03;5012033;28;20018;-65
2022/01/13 04:57:37;;;;;;;22.95;9.52;;;;;;;-0.43;100.00;100858.97;5017997;28;20072;-65
2022/01/13 05:00:08;;;;;;;42.92;12.77;;;;;;;-0.51;100.00;100855.03;5019050;28;20030;-65
2022/01/13 05:02:33;;;;;;;43.45;12.15;;;;;;;-0.47;100.00;100853.53;5016833;28;20021;-65
2022/01/13 05:04:59;;;;;;;25.23;9.45;;;;;;;-0.51;100.00;100855.03;5014473;28;20373;-65
2022/01/13 05:07:24;;;;;;;26.02;10.23;;;;;;;-0.58;100.00;100863.22;5016301;28;20256;-65
2022/01/13 05:09:49;;;;;;;29.20;11.75;;;;;;;-0.61;100.00;100857.88;5006067;28;20030;-65
2022/01/13 05:12:17;;;;;;;38.33;11.35;;;;;;;-0.66;100.00;100856.69;5019620;28;20022;-65
2022/01/13 05:14:43;;;;;;;24.50;9.00;;;;;;;-0.53;100.00;100866.97;5012605;28;20064;-65
2022/01/13 05:17:33;;;;;;;26.60;10.35;;;;;;;-0.57;100.00;100859.81;5024840;28;20037;-65
2022/01/13 05:20:12;;;;;;;27.75;11.10;;;;;;;-0.66;100.00;100868.75;5022953;28;20026;-65
2022/01/13 05:22:38;;;;;;;36.88;12.77;;;;;;;-0.47;100.00;100864.75;5008788;28;20022;-65
2022/01/13 05:25:04;;;;;;;23.92;11.32;;;;;;;-0.52;100.00;100873.94;5017367;28;20029;-65
2022/01/13 05:27:30;;;;;;;24.00;10.27;;;;;;;-0.52;100.00;100868.78;5006681;28;20058;-65
2022/01/13 05:29:55;;;;;;;34.13;10.77;;;;;;;-0.55;100.00;100871.16;5015456;28;20022;-65
2022/01/13 05:32:21;;;;;;;31.38;12.55;;;;;;;-0.52;100.00;100863.59;5013495;28;20033;-65
2022/01/13 05:34:46;;;;;;;29.27;10.90;;;;;;;-0.52;100.00;100861.00;5006933;28;20010;-66
2022/01/13 05:37:12;;;;;;;43.03;10.93;;;;;;;-0.53;100.00;100861.78;5013052;28;20045;-66
2022/01/13 05:39:37;;;;;;;42.42;14.55;;;;;;;-0.70;100.00;100859.91;5022099;28;20202;-66
2022/01/13 05:42:03;;;;;;;34.78;12.07;;;;;;;-0.69;100.00;100855.63;5024139;28;20025;-66
2022/01/13 05:44:28;;;;;;;36.25;15.25;;;;;;;-0.69;100.00;100856.50;5024000;28;20029;-66
2022/01/13 05:46:54;;;;;;;37.65;15.55;;;;;;;-0.67;100.00;100857.50;5024082;28;20021;-66
2022/01/13 05:49:19;;;;;;;51.97;14.70;;;;;;;-0.65;100.00;100858.50;5024087;28;20049;-66
2022/01/13 05:51:44;;;;;;;29.35;11.90;;;;;;;-0.67;100.00;100860.09;5025162;28;20216;-66
2022/01/13 05:54:10;;;;;;;39.55;14.63;;;;;;;-0.60;100.00;100864.81;5028156;28;20033;-66
2022/01/13 05:56:35;;;;;;;29.52;12.20;;;;;;;-0.47;100.00;100872.50;5026223;28;20018;-66
2022/01/13 05:59:01;;;;;;;32.33;13.50;;;;;;;-0.59;100.00;100876.97;5018355;28;20029;-66
2022/01/13 06:01:26;;;;;;;23.58;10.63;;;;;;;-0.52;100.00;100879.13;5020792;28;20084;-66
2022/01/13 06:03:52;;;;;;;35.53;12.38;;;;;;;-0.57;100.00;100877.94;5018347;28;20023;-66
2022/01/13 06:06:17;;;;;;;35.55;11.77;;;;;;;-0.55;100.00;100867.69;5016577;28;20037;-66
2022/01/13 06:08:42;;;;;;;34.88;12.68;;;;;;;-0.48;100.00;100870.72;5018519;28;20026;-65
2022/01/13 06:11:08;;;;;;;40.97;13.70;;;;;;;-0.52;100.00;100871.34;5015942;28;20333;-65
2022/01/13 06:13:33;;;;;;;33.00;11.63;;;;;;;-0.51;100.00;100870.53;5006297;28;20033;-65
2022/01/13 06:15:59;;;;;;;40.90;13.43;;;;;;;-0.53;100.00;100871.25;5007138;28;20033;-65
2022/01/13 06:18:25;;;;;;;23.73;10.90;;;;;;;-0.46;100.00;100871.72;5007105;28;20022;-65
2022/01/13 06:20:50;;;;;;;32.33;11.82;;;;;;;-0.47;100.00;100877.66;5006998;28;20030;-65
2022/01/13 06:23:17;;;;;;;31.58;11.95;;;;;;;-0.55;100.00;100873.75;5007005;28;20097;-65
2022/01/13 06:25:43;;;;;;;32.20;12.70;;;;;;;-0.47;100.00;100877.66;5011460;28;20021;-65
2022/01/13 06:28:08;;;;;;;47.63;13.10;;;;;;;-0.48;100.00;100875.91;5033483;28;20127;-65
2022/01/13 06:30:34;;;;;;;30.05;13.00;;;;;;;-0.40;100.00;100874.69;5046264;28;20332;-65
2022/01/13 06:32:59;;;;;;;25.08;9.27;;;;;;;-0.25;100.00;100878.13;5046246;28;20027;-66
2022/01/13 06:35:25;;;;;;;41.90;10.13;;;;;;;-0.20;100.00;100878.41;5046225;28;20017;-66
2022/01/13 06:37:50;;;;;;;30.40;10.07;;;;;;;-0.18;100.00;100877.69;5045746;28;20068;-66
2022/01/13 06:40:16;;;;;;;29.88;12.30;;;;;;;-0.29;100.00;100877.88;5046097;28;20080;-66
2022/01/13 06:42:42;;;;;;;32.50;11.80;;;;;;;-0.29;100.00;100881.34;5046085;28;20052;-66
2022/01/13 06:45:10;;;;;;;33.75;11.93;;;;;;;-0.40;100.00;100878.94;5032551;28;20021;-66
2022/01/13 06:47:37;;;;;;;39.47;10.82;;;;;;;-0.31;100.00;100875.19;5007434;28;20030;-66
2022/01/13 06:50:03;;;;;;;33.30;13.77;;;;;;;-0.26;100.00;100878.03;5025407;28;20088;-66
2022/01/13 06:52:28;;;;;;;32.50;13.73;;;;;;;-0.40;100.00;100876.34;5026966;28;20026;-66
2022/01/13 06:54:53;;;;;;;41.60;13.85;;;;;;;-0.49;100.00;100878.41;5026682;28;20056;-66
2022/01/13 06:57:19;;;;;;;32.95;11.27;;;;;;;-0.42;100.00;100876.25;5027080;28;20190;-66
2022/01/13 06:59:46;;;;;;;33.25;13.50;;;;;;;-0.46;100.00;100884.66;5026899;28;20348;-66
2022/01/13 07:02:13;;;;;;;36.58;12.98;;;;;;;-0.37;100.00;100879.13;5026753;28;20021;-66
2022/01/13 07:04:38;;;;;;;47.88;14.45;;;;;;;-0.52;100.00;100879.13;5025408;28;20045;-66
2022/01/13 07:07:04;;;;;;;39.17;14.30;;;;;;;-0.57;100.00;100885.69;5026742;28;20061;-66
2022/01/13 07:09:29;;;;;;;32.60;11.52;;;;;;;-0.51;100.00;100885.16;5026628;28;20029;-66
2022/01/13 07:11:54;;;;;;;30.45;10.32;;;;;;;-0.37;100.00;100890.38;5026644;28;20129;-66
2022/01/13 07:14:20;;;;;;;30.70;10.75;;;;;;;-0.54;100.00;100901.41;5026638;28;20225;-66
2022/01/13 07:16:46;;;;;;;33.45;10.98;;;;;;;-0.48;100.00;100900.88;5026819;28;20030;-66
2022/01/13 07:19:13;;;;;;;38.55;15.85;;;;;;;-0.54;100.00;100911.75;5026590;28;20049;-66
2022/01/13 07:21:40;;;;;;;36.67;14.40;;;;;;;-0.46;100.00;100900.19;5026516;28;20030;-66
2022/01/13 07:24:06;;;;;;;34.47;11.25;;;;;;;-0.43;100.00;100895.19;5026358;28;20034;-66
2022/01/13 07:26:31;;;;;;;33.75;13.70;;;;;;;-0.43;100.00;100895.19;5026137;28;20404;-66
2022/01/13 07:28:57;;;;;;;41.67;13.98;;;;;;;-0.38;100.00;100901.50;5026328;28;20352;-66
2022/01/13 07:31:22;;;;;;;38.88;11.23;;;;;;;-0.35;100.00;100904.28;5026222;28;20348;-66
2022/01/13 07:33:48;;;;;;;33.28;11.65;;;;;;;-0.36;100.00;100899.91;5026473;28;20026;-66
2022/01/13 07:36:14;;;;;;;35.05;12.18;;;;;;;-0.21;100.00;100898.25;5026437;28;20077;-66
2022/01/13 07:38:40;;;;;;;32.53;10.85;;;;;;;-0.15;100.00;100908.94;5026412;28;20213;-66
2022/01/13 07:41:05;;;;;;;36.95;14.00;;;;;;;-0.25;100.00;100910.91;5026105;28;20030;-66
2022/01/13 07:43:31;;;;;;;33.95;12.20;;;;;;;-0.24;100.00;100913.59;5026269;28;20045;-66
2022/01/13 07:45:57;;;;;;;38.13;11.52;;;;;;;-0.25;100.00;100916.97;5026203;28;20053;-66
2022/01/13 07:48:24;;;;;;;39.63;11.30;;;;;;;-0.32;100.00;100912.22;5025964;28;20305;-66
2022/01/13 07:50:51;;;;;;;45.88;13.63;;;;;;;-0.31;100.00;100910.53;5026170;28;20298;-66
2022/01/13 07:53:16;;;;;;;22.75;9.32;;;;;;;-0.51;100.00;100917.09;5025904;28;20057;-66
2022/01/13 07:55:42;;;;;;;37.47;12.10;;;;;;;-0.48;100.00;100912.13;5025865;28;20064;-66
2022/01/13 07:58:08;;;;;;;35.97;12.68;;;;;;;-0.43;100.00;100923.66;5025731;28;20060;-66
2022/01/13 08:00:34;;;;;;;49.17;14.50;;;;;;;-0.49;100.00;100914.59;5025701;28;20328;-66
2022/01/13 08:03:00;;;;;;;43.55;13.45;;;;;;;-0.56;100.00;100918.53;5025686;28;20029;-66
2022/01/13 08:05:25;;;;;;;41.38;16.02;;;;;;;-0.36;100.00;100918.03;5025568;28;20054;-66
2022/01/13 08:07:51;;;;;;;44.55;14.88;;;;;;;-0.36;100.00;100910.25;5025814;28;20025;-66
2022/01/13 08:10:16;;;;;;;34.17;14.75;;;;;;;-0.46;100.00;100910.53;5025528;28;20022;-66
2022/01/13 08:12:42;;;;;;;45.70;14.07;;;;;;;-0.52;100.00;100909.25;5025508;28;20084;-66
2022/01/13 08:15:12;;;;;;;36.97;13.35;;;;;;;-0.45;100.00;100907.13;5025014;28;20052;-66
2022/01/13 08:20:22;;;;;;;31.63;11.27;;;;;;;-0.28;100.00;100903.84;5025438;28;20067;-66
2022/01/13 08:22:47;;;;;;;39.25;13.68;;;;;;;-0.30;100.00;100905.47;5025357;28;20030;-66
2022/01/13 08:25:15;;;;;;;33.90;11.85;;;;;;;-0.38;100.00;100904.09;5025169;28;20026;-66
2022/01/13 08:27:40;;;;;;;30.38;12.00;;;;;;;-0.35;100.00;100900.78;5025181;28;20053;-66
2022/01/13 08:30:07;;;;;;;36.75;13.40;;;;;;;-0.44;100.00;100901.13;5025197;28;20025;-66
2022/01/13 08:32:32;;;;;;;39.85;13.23;;;;;;;-0.36;100.00;100902.50;5025129;28;20072;-66
2022/01/13 08:34:57;;;;;;;38.28;13.20;;;;;;;-0.35;100.00;100899.09;5025117;28;20248;-66
2022/01/13 08:37:23;;;;;;;44.17;15.65;;;;;;;-0.28;100.00;100902.97;5025114;28;20260;-66
2022/01/13 08:39:50;;;;;;;32.78;11.10;;;;;;;-0.20;100.00;100905.19;5024983;28;20053;-66
2022/01/13 08:42:16;;;;;;;32.30;11.98;;;;;;;-0.11;100.00;100910.91;5024955;28;20032;-66
2022/01/13 08:44:42;;;;;;;43.75;10.20;;;;;;;-0.22;100.00;100901.59;5024915;28;20037;-66
2022/01/13 08:47:08;;;;;;;36.10;13.48;;;;;;;-0.12;100.00;100906.53;5024902;28;20252;-66
2022/01/13 08:49:33;;;;;;;34.20;11.55;;;;;;;-0.21;100.00;100906.00;5025108;28;20029;-66
2022/01/13 08:52:00;;;;;;;32.53;12.05;;;;;;;-0.10;100.00;100902.34;5024794;28;20060;-66
2022/01/13 08:54:25;;;;;;;41.67;12.00;;;;;;;0.06;100.00;100904.09;5024765;28;20034;-66
2022/01/13 08:56:51;;;;;;;47.65;13.82;;;;;;;0.13;100.00;100905.38;5024713;28;20064;-66
2022/01/13 08:59:16;;;;;;;36.55;12.73;;;;;;;0.08;100.00;100906.78;5024664;28;20041;-66
2022/01/13 09:01:42;;;;;;;33.55;12.20;;;;;;;0.17;100.00;100910.81;5024672;28;20025;-66
2022/01/13 09:04:07;;;;;;;34.45;12.23;;;;;;;0.32;100.00;100918.56;5024578;28;20325;-66
2022/01/13 09:06:32;;;;;;;34.50;12.32;;;;;;;0.10;100.00;100910.38;5024550;28;20202;-66
2022/01/13 09:08:58;;;;;;;36.30;12.43;;;;;;;0.16;100.00;100913.31;5024553;28;20025;-66
2022/01/13 09:11:24;;;;;;;32.58;11.55;;;;;;;0.21;100.00;100909.28;5024734;28;20036;-66
2022/01/13 09:13:56;;;;;;;28.23;10.65;;;;;;;0.41;100.00;100916.50;5024448;28;20385;-66
2022/01/13 09:16:24;;;;;;;;;;;;;;;0.49;100.00;100907.44;5025134;28;20037;-66
2022/01/13 09:21:22;;;;;;;27.73;9.93;;;;;;;0.33;100.00;100912.56;5024675;28;20033;-66
2022/01/13 09:23:47;;;;;;;34.80;13.07;;;;;;;0.53;100.00;100914.59;5024255;28;20263;-66
2022/01/13 09:26:13;;;;;;;34.45;12.57;;;;;;;0.67;100.00;100924.94;5023331;28;20053;-66
2022/01/13 09:28:39;;;;;;;38.30;12.80;;;;;;;0.64;100.00;100913.50;5024326;28;20030;-66
2022/01/13 09:31:06;;;;;;;33.22;12.35;;;;;;;0.68;100.00;100920.63;5024470;28;20026;-66
2022/01/13 09:33:32;;;;;;;40.47;13.75;;;;;;;0.71;99.72;100915.63;5024221;28;20018;-66
2022/01/13 09:35:58;;;;;;;30.88;11.35;;;;;;;0.61;99.59;100923.69;5024151;28;20322;-66
2022/01/13 09:38:24;;;;;;;32.45;13.15;;;;;;;0.28;99.88;100922.66;5024395;28;20320;-66
2022/01/13 09:40:54;;;;;;;38.15;12.48;;;;;;;0.44;100.00;100919.28;5024209;28;20025;-66
2022/01/13 09:43:26;;;;;;;34.65;11.57;;;;;;;0.61;100.00;100921.09;5024096;28;20022;-66
2022/01/13 09:45:53;;;;;;;33.30;12.73;;;;;;;0.66;100.00;100920.53;5023960;28;20033;-66
2022/01/13 09:48:18;;;;;;;34.70;12.38;;;;;;;0.68;100.00;100920.63;5024015;28;20068;-66
2022/01/13 09:50:46;;;;;;;45.30;13.30;;;;;;;0.57;100.00;100912.25;5024049;28;20267;-66
2022/01/13 09:53:12;;;;;;;34.85;13.30;;;;;;;0.45;100.00;100915.84;5024271;28;20089;-66
2022/01/13 09:55:39;;;;;;;31.85;13.10;;;;;;;0.61;100.00;100921.09;5023968;28;20088;-66
2022/01/13 09:58:10;;;;;;;38.05;13.15;;;;;;;0.78;99.97;100917.72;5023959;28;20101;-66
2022/01/13 10:00:37;;;;;;;38.30;12.53;;;;;;;0.86;99.14;100921.66;5024014;28;20049;-66
2022/01/13 10:03:12;;;;;;;25.83;11.00;;;;;;;1.11;98.80;100924.78;5023921;28;20026;-66
2022/01/13 10:06:06;;;;;;;33.58;13.32;;;;;;;1.20;98.09;100926.16;5023826;28;20105;-66
2022/01/13 10:08:49;;;;;;;39.13;13.13;;;;;;;1.18;97.98;100926.88;5019934;28;20065;-66
2022/01/13 10:11:41;;;;;;;28.35;10.93;;;;;;;1.16;98.12;100912.94;5023929;28;20037;-66
2022/01/13 10:16:55;;;;;;;36.50;11.85;;;;;;;1.21;98.79;100901.13;5024159;28;19944;-66
2022/01/13 10:19:29;;;;;;;35.25;12.73;;;;;;;1.25;98.28;100903.06;5023779;28;20022;-66
2022/01/13 10:22:19;;;;;;;26.13;10.55;;;;;;;1.18;98.10;100912.22;5024054;28;20217;-66
2022/01/13 10:24:47;;;;;;;30.25;12.50;;;;;;;1.22;98.23;100902.88;5023562;28;20029;-66
2022/01/13 10:27:19;;;;;;;37.50;14.45;;;;;;;1.23;98.37;100904.69;5023592;28;20050;-66
2022/01/13 10:29:47;;;;;;;35.25;12.27;;;;;;;1.32;98.53;100910.34;5023692;28;20022;-66
2022/01/13 10:32:36;;;;;;;31.60;12.20;;;;;;;1.41;97.56;100901.34;5023686;28;20030;-66
2022/01/13 10:35:14;;;;;;;42.75;14.30;;;;;;;1.30;97.37;100901.59;5023550;28;20025;-66
2022/01/13 10:37:56;;;;;;;38.35;13.77;;;;;;;0.91;97.88;100909.81;5024539;28;20108;-66
2022/01/13 10:40:25;;;;;;;;;;;;;;;0.91;99.11;100912.41;5027977;28;20265;-66
2022/01/13 10:45:23;;;;;;;29.77;13.68;;;;;;;1.15;99.12;100900.78;5027374;28;20037;-66
2022/01/13 10:47:51;;;;;;;36.67;12.98;;;;;;;1.14;99.43;100894.69;5027118;28;20092;-66
2022/01/13 10:50:17;;;;;;;41.67;15.05;;;;;;;0.98;98.91;100896.41;5027114;28;20025;-66
2022/01/13 10:52:42;;;;;;;40.08;12.30;;;;;;;1.15;99.15;100890.41;5027050;28;20029;-66
2022/01/13 10:55:14;;;;;;;44.90;15.98;;;;;;;1.23;98.77;100890.00;5026960;28;20022;-66
2022/01/13 10:57:42;;;;;;;41.37;14.20;;;;;;;1.22;99.16;100887.31;5026953;28;20022;-66
2022/01/13 11:00:30;;;;;;;47.15;15.48;;;;;;;1.24;99.47;100893.50;5026869;28;20022;-66
2022/01/13 11:03:22;;;;;;;28.30;11.90;;;;;;;1.60;98.83;100895.41;5026908;28;20075;-66
2022/01/13 11:05:52;;;;;;;38.03;13.27;;;;;;;1.64;98.34;100900.84;5026816;28;20105;-66
2022/01/13 11:08:38;;;;;;;39.50;15.90;;;;;;;1.44;98.88;100895.44;5026695;28;20037;-66
2022/01/13 11:11:03;;;;;;;36.42;13.18;;;;;;;1.70;98.54;100889.88;5026701;28;20030;-66
2022/01/13 11:13:35;;;;;;;35.25;13.80;;;;;;;1.59;98.50;100898.84;5026621;28;20057;-66
2022/01/13 11:16:01;;;;;;;35.75;14.27;;;;;;;1.66;98.18;100887.94;5026875;28;20301;-66
2022/01/13 11:18:29;;;;;;;41.00;15.82;;;;;;;1.68;98.52;100881.13;5026825;28;20025;-66
2022/01/13 11:20:55;;;;;;;36.75;12.88;;;;;;;1.81;97.97;100883.53;5026766;28;20064;-66
2022/01/13 11:23:21;;;;;;;43.28;15.10;;;;;;;1.74;97.81;100884.06;5026487;28;20041;-66
2022/01/13 11:25:52;;;;;;;42.22;14.52;;;;;;;1.97;97.38;100883.50;5026015;28;20032;-66
2022/01/13 11:28:19;;;;;;;42.92;14.02;;;;;;;1.85;97.90;100877.69;5026387;28;20029;-66
2022/01/13 11:30:46;;;;;;;45.65;15.57;;;;;;;2.04;97.53;100875.19;5026306;28;20026;-66
2022/01/13 11:33:12;;;;;;;38.20;13.23;;;;;;;1.96;98.21;100869.63;5026272;28;20085;-66
2022/01/13 11:35:45;;;;;;;41.72;13.93;;;;;;;1.79;97.52;100872.19;5026276;28;20022;-66
2022/01/13 11:38:13;;;;;;;39.40;16.17;;;;;;;1.76;97.76;100869.44;5026433;28;20028;-66
2022/01/13 11:40:48;;;;;;;42.75;16.65;;;;;;;1.70;98.06;100871.72;5026364;28;20030;-66
2022/01/13 11:43:27;;;;;;;29.60;12.93;;;;;;;1.76;98.30;100870.31;5026191;28;20022;-66